sensor_id;sensor_type;location;lat;lon;timestamp;pressure;altitude;pressure_sealevel;temperature;humidity
50672;BME280;46021;55.882;37.654;2023-03-04T00:00:03;97837.94;;;-2.99;74.62
50672;BME280;46021;55.882;37.654;2023-03-04T00:02:36;97831.13;;;-2.94;74.60
50672;BME280;46021;55.882;37.654;2023-03-04T00:05:03;97815.81;;;-2.94;74.11
50672;BME280;46021;55.882;37.654;2023-03-04T00:07:31;97822.59;;;-2.93;74.51
50672;BME280;46021;55.882;37.654;2023-03-04T00:09:58;97817.50;;;-2.93;74.69
50672;BME280;46021;55.882;37.654;2023-03-04T00:12:25;97819.25;;;-2.98;75.18
50672;BME280;46021;55.882;37.654;2023-03-04T00:14:52;97811.63;;;-3.03;73.62
50672;BME280;46021;55.882;37.654;2023-03-04T00:17:21;97809.13;;;-3.04;74.77
50672;BME280;46021;55.882;37.654;2023-03-04T00:19:48;97810.84;;;-3.09;73.72
50672;BME280;46021;55.882;37.654;2023-03-04T00:22:15;97805.81;;;-3.16;74.55
50672;BME280;46021;55.882;37.654;2023-03-04T00:24:42;97799.88;;;-3.21;74.25
50672;BME280;46021;55.882;37.654;2023-03-04T00:27:10;97799.00;;;-3.20;74.12
50672;BME280;46021;55.882;37.654;2023-03-04T00:29:37;97792.28;;;-3.27;75.91
50672;BME280;46021;55.882;37.654;2023-03-04T00:32:04;97785.50;;;-3.28;75.70
50672;BME280;46021;55.882;37.654;2023-03-04T00:34:32;97774.47;;;-3.33;74.82
50672;BME280;46021;55.882;37.654;2023-03-04T00:36:59;97766.03;;;-3.38;74.59
50672;BME280;46021;55.882;37.654;2023-03-04T00:39:28;97775.31;;;-3.31;75.32
50672;BME280;46021;55.882;37.654;2023-03-04T00:41:55;97794.03;;;-3.35;75.43
50672;BME280;46021;55.882;37.654;2023-03-04T00:44:22;97799.22;;;-3.47;78.01
50672;BME280;46021;55.882;37.654;2023-03-04T00:46:49;97785.59;;;-3.43;77.83
50672;BME280;46021;55.882;37.654;2023-03-04T00:49:17;97784.66;;;-3.31;77.37
50672;BME280;46021;55.882;37.654;2023-03-04T00:51:45;97798.28;;;-3.37;77.65
50672;BME280;46021;55.882;37.654;2023-03-04T00:54:12;97799.13;;;-3.35;77.68
50672;BME280;46021;55.882;37.654;2023-03-04T00:56:40;97777.06;;;-3.36;76.96
50672;BME280;46021;55.882;37.654;2023-03-04T00:59:07;97785.50;;;-3.28;76.61
50672;BME280;46021;55.882;37.654;2023-03-04T01:01:34;97778.69;;;-3.27;77.40
50672;BME280;46021;55.882;37.654;2023-03-04T01:04:01;97785.50;;;-3.28;77.02
50672;BME280;46021;55.882;37.654;2023-03-04T01:06:28;97788.09;;;-3.36;77.21
50672;BME280;46021;55.882;37.654;2023-03-04T01:08:57;97779.63;;;-3.41;78.35
50672;BME280;46021;55.882;37.654;2023-03-04T01:11:24;97772.00;;;-3.42;77.49
50672;BME280;46021;55.882;37.654;2023-03-04T01:13:51;97777.84;;;-3.29;76.98
50672;BME280;46021;55.882;37.654;2023-03-04T01:16:18;97771.91;;;-3.30;77.81
50672;BME280;46021;55.882;37.654;2023-03-04T01:18:47;97771.91;;;-3.30;77.18
50672;BME280;46021;55.882;37.654;2023-03-04T01:21:14;97778.69;;;-3.29;76.86
50672;BME280;46021;55.882;37.654;2023-03-04T01:23:41;97764.28;;;-3.30;77.21
50672;BME280;46021;55.882;37.654;2023-03-04T01:26:09;97769.38;;;-3.33;78.05
50672;BME280;46021;55.882;37.654;2023-03-04T01:28:36;97760.84;;;-3.27;77.54
50672;BME280;46021;55.882;37.654;2023-03-04T01:31:05;97768.50;;;-3.26;76.79
50672;BME280;46021;55.882;37.654;2023-03-04T01:33:33;97758.28;;;-3.26;76.48
50672;BME280;46021;55.882;37.654;2023-03-04T01:36:00;97768.53;;;-3.32;77.52
50672;BME280;46021;55.882;37.654;2023-03-04T01:38:27;97761.78;;;-3.39;77.19
50672;BME280;46021;55.882;37.654;2023-03-04T01:40:54;97763.50;;;-3.43;76.95
50672;BME280;46021;55.882;37.654;2023-03-04T01:43:24;97758.41;;;-3.44;77.25
50672;BME280;46021;55.882;37.654;2023-03-04T01:45:54;97756.75;;;-3.50;78.13
50672;BME280;46021;55.882;37.654;2023-03-04T01:48:24;97749.16;;;-3.55;78.07
50672;BME280;46021;55.882;37.654;2023-03-04T01:50:52;97743.19;;;-3.52;77.85
50672;BME280;46021;55.882;37.654;2023-03-04T01:53:21;97744.06;;;-3.51;78.41
50672;BME280;46021;55.882;37.654;2023-03-04T01:55:52;97744.06;;;-3.56;78.51
50672;BME280;46021;55.882;37.654;2023-03-04T01:58:20;97743.28;;;-3.63;79.61
50672;BME280;46021;55.882;37.654;2023-03-04T02:00:48;97737.31;;;-3.62;79.46
50672;BME280;46021;55.882;37.654;2023-03-04T02:03:17;97733.06;;;-3.60;78.41
50672;BME280;46021;55.882;37.654;2023-03-04T02:05:48;97723.72;;;-3.58;78.16
50672;BME280;46021;55.882;37.654;2023-03-04T02:08:18;97727.91;;;-3.47;78.41
50672;BME280;46021;55.882;37.654;2023-03-04T02:10:46;97720.25;;;-3.46;78.79
50672;BME280;46021;55.882;37.654;2023-03-04T02:13:35;97720.25;;;-3.46;78.56
50672;BME280;46021;55.882;37.654;2023-03-04T02:16:05;97708.41;;;-3.51;78.20
50672;BME280;46021;55.882;37.654;2023-03-04T02:18:32;97712.56;;;-3.44;76.96
50672;BME280;46021;55.882;37.654;2023-03-04T02:21:04;97695.69;;;-3.59;77.94
50672;BME280;46021;55.882;37.654;2023-03-04T02:23:38;97704.22;;;-3.59;78.06
50672;BME280;46021;55.882;37.654;2023-03-04T02:26:12;97692.38;;;-3.69;78.00
50672;BME280;46021;55.882;37.654;2023-03-04T02:28:40;97694.91;;;-3.63;79.03
50672;BME280;46021;55.882;37.654;2023-03-04T02:31:19;97695.75;;;-3.65;78.73
50672;BME280;46021;55.882;37.654;2023-03-04T02:33:48;97693.22;;;-3.67;78.34
50672;BME280;46021;55.882;37.654;2023-03-04T02:36:15;97683.03;;;-3.67;77.91
50672;BME280;46021;55.882;37.654;2023-03-04T02:38:42;97689.81;;;-3.66;78.62
50672;BME280;46021;55.882;37.654;2023-03-04T02:41:13;97680.53;;;-3.73;78.91
50672;BME280;46021;55.882;37.654;2023-03-04T02:43:48;97675.44;;;-3.70;77.93
50672;BME280;46021;55.882;37.654;2023-03-04T02:46:16;97672.88;;;-3.68;78.40
50672;BME280;46021;55.882;37.654;2023-03-04T02:48:43;97672.00;;;-3.63;77.84
50672;BME280;46021;55.882;37.654;2023-03-04T02:51:11;97671.13;;;-3.63;77.66
50672;BME280;46021;55.882;37.654;2023-03-04T02:53:38;97661.84;;;-3.69;78.46
50672;BME280;46021;55.882;37.654;2023-03-04T02:56:06;97661.03;;;-3.74;77.81
50672;BME280;46021;55.882;37.654;2023-03-04T02:58:37;97663.59;;;-3.74;78.37
50672;BME280;46021;55.882;37.654;2023-03-04T03:01:07;97656.78;;;-3.72;77.69
50672;BME280;46021;55.882;37.654;2023-03-04T03:03:34;97655.03;;;-3.67;77.72
50672;BME280;46021;55.882;37.654;2023-03-04T03:06:01;97651.63;;;-3.63;79.30
50672;BME280;46021;55.882;37.654;2023-03-04T03:08:29;97642.22;;;-3.55;78.02
50672;BME280;46021;55.882;37.654;2023-03-04T03:10:56;97636.25;;;-3.54;78.73
50672;BME280;46021;55.882;37.654;2023-03-04T03:13:24;97635.41;;;-3.53;78.45
50672;BME280;46021;55.882;37.654;2023-03-04T03:15:53;97632.84;;;-3.54;79.47
50672;BME280;46021;55.882;37.654;2023-03-04T03:18:23;97630.31;;;-3.53;78.46
50672;BME280;46021;55.882;37.654;2023-03-04T03:20:50;97626.03;;;-3.50;78.66
50672;BME280;46021;55.882;37.654;2023-03-04T03:23:17;97626.09;;;-3.57;78.65
50672;BME280;46021;55.882;37.654;2023-03-04T03:25:45;97621.91;;;-3.62;78.36
50672;BME280;46021;55.882;37.654;2023-03-04T03:28:12;97623.63;;;-3.66;79.54
50672;BME280;46021;55.882;37.654;2023-03-04T03:30:39;97627.06;;;-3.73;78.36
50672;BME280;46021;55.882;37.654;2023-03-04T03:33:08;97626.31;;;-3.84;79.44
50672;BME280;46021;55.882;37.654;2023-03-04T03:35:36;97623.78;;;-3.86;80.16
50672;BME280;46021;55.882;37.654;2023-03-04T03:38:03;97623.81;;;-3.87;80.40
50672;BME280;46021;55.882;37.654;2023-03-04T03:40:30;97615.28;;;-3.85;79.18
50672;BME280;46021;55.882;37.654;2023-03-04T03:42:57;97620.31;;;-3.79;78.88
50672;BME280;46021;55.882;37.654;2023-03-04T03:45:25;97607.59;;;-3.80;80.00
50672;BME280;46021;55.882;37.654;2023-03-04T03:47:52;97616.94;;;-3.78;80.12
50672;BME280;46021;55.882;37.654;2023-03-04T03:50:20;97615.22;;;-3.76;79.10
50672;BME280;46021;55.882;37.654;2023-03-04T03:52:47;97615.31;;;-3.86;79.84
50672;BME280;46021;55.882;37.654;2023-03-04T03:55:14;97603.47;;;-3.89;79.52
50672;BME280;46021;55.882;37.654;2023-03-04T03:57:41;97606.78;;;-3.84;79.60
50672;BME280;46021;55.882;37.654;2023-03-04T04:00:09;97599.13;;;-3.82;79.64
50672;BME280;46021;55.882;37.654;2023-03-04T04:02:39;97589.84;;;-3.85;79.83
50672;BME280;46021;55.882;37.654;2023-03-04T04:05:08;97585.56;;;-3.80;79.84
50672;BME280;46021;55.882;37.654;2023-03-04T04:07:37;97586.41;;;-3.81;79.34
50672;BME280;46021;55.882;37.654;2023-03-04T04:10:04;97574.56;;;-3.85;79.45
50672;BME280;46021;55.882;37.654;2023-03-04T04:12:32;97583.03;;;-3.86;80.49
50672;BME280;46021;55.882;37.654;2023-03-04T04:14:59;97579.66;;;-3.83;80.40
50672;BME280;46021;55.882;37.654;2023-03-04T04:17:26;97569.53;;;-3.91;79.71
50672;BME280;46021;55.882;37.654;2023-03-04T04:19:53;97567.00;;;-3.91;80.01
50672;BME280;46021;55.882;37.654;2023-03-04T04:22:20;97566.16;;;-3.93;80.23
50672;BME280;46021;55.882;37.654;2023-03-04T04:24:49;97562.75;;;-3.94;80.37
50672;BME280;46021;55.882;37.654;2023-03-04T04:27:16;97560.22;;;-3.94;79.03
50672;BME280;46021;55.882;37.654;2023-03-04T04:29:44;97557.72;;;-4.03;80.60
50672;BME280;46021;55.882;37.654;2023-03-04T04:32:11;97563.63;;;-3.95;80.40
50672;BME280;46021;55.882;37.654;2023-03-04T04:34:38;97555.94;;;-3.90;80.83
50672;BME280;46021;55.882;37.654;2023-03-04T04:37:06;97549.13;;;-3.85;79.72
50672;BME280;46021;55.882;37.654;2023-03-04T04:39:33;97552.56;;;-3.89;80.00
50672;BME280;46021;55.882;37.654;2023-03-04T04:42:02;97547.47;;;-3.94;80.58
50672;BME280;46021;55.882;37.654;2023-03-04T04:44:29;97561.09;;;-3.96;79.60
50672;BME280;46021;55.882;37.654;2023-03-04T04:46:56;97559.50;;;-4.11;80.43
50672;BME280;46021;55.882;37.654;2023-03-04T04:49:23;97549.31;;;-4.11;80.16
50672;BME280;46021;55.882;37.654;2023-03-04T04:51:51;97555.22;;;-4.06;80.68
50672;BME280;46021;55.882;37.654;2023-03-04T04:54:18;97550.97;;;-4.04;80.80
50672;BME280;46021;55.882;37.654;2023-03-04T04:56:45;97556.88;;;-3.99;81.72
50672;BME280;46021;55.882;37.654;2023-03-04T04:59:13;97546.66;;;-3.94;81.36
50672;BME280;46021;55.882;37.654;2023-03-04T05:01:40;97550.94;;;-3.99;80.52
50672;BME280;46021;55.882;37.654;2023-03-04T05:04:07;97551.78;;;-4.00;80.92
50672;BME280;46021;55.882;37.654;2023-03-04T05:06:35;97551.81;;;-4.02;80.53
50672;BME280;46021;55.882;37.654;2023-03-04T05:09:02;97539.16;;;-4.13;81.14
50672;BME280;46021;55.882;37.654;2023-03-04T05:11:29;97556.97;;;-4.11;80.73
50672;BME280;46021;55.882;37.654;2023-03-04T05:13:56;97556.13;;;-4.16;80.77
50672;BME280;46021;55.882;37.654;2023-03-04T05:16:25;97556.13;;;-4.12;80.69
50672;BME280;46021;55.882;37.654;2023-03-04T05:18:52;97551.94;;;-4.20;80.98
50672;BME280;46021;55.882;37.654;2023-03-04T05:21:19;97549.31;;;-4.08;81.62
50672;BME280;46021;55.882;37.654;2023-03-04T05:23:46;97550.06;;;-3.97;81.62
50672;BME280;46021;55.882;37.654;2023-03-04T05:26:16;97550.00;;;-3.90;81.16
50672;BME280;46021;55.882;37.654;2023-03-04T05:28:43;97555.09;;;-3.87;81.88
50672;BME280;46021;55.882;37.654;2023-03-04T05:31:11;97557.59;;;-3.83;81.39
50672;BME280;46021;55.882;37.654;2023-03-04T05:33:39;97543.88;;;-3.69;80.34
50672;BME280;46021;55.882;37.654;2023-03-04T05:36:07;97542.97;;;-3.61;80.56
50672;BME280;46021;55.882;37.654;2023-03-04T05:38:34;97548.97;;;-3.66;80.93
50672;BME280;46021;55.882;37.654;2023-03-04T05:41:03;97539.59;;;-3.66;81.57
50672;BME280;46021;55.882;37.654;2023-03-04T05:43:32;97536.16;;;-3.59;80.68
50672;BME280;46021;55.882;37.654;2023-03-04T05:46:00;97525.78;;;-3.43;81.01
50672;BME280;46021;55.882;37.654;2023-03-04T05:48:27;97503.66;;;-3.38;80.91
50672;BME280;46021;55.882;37.654;2023-03-04T05:50:58;97517.00;;;-3.18;80.64
50672;BME280;46021;55.882;37.654;2023-03-04T05:53:25;97518.50;;;-3.00;80.16
50672;BME280;46021;55.882;37.654;2023-03-04T05:55:53;97502.88;;;-2.77;80.73
50672;BME280;46021;55.882;37.654;2023-03-04T05:58:20;97511.03;;;-2.51;80.24
50672;BME280;46021;55.882;37.654;2023-03-04T06:00:47;97504.97;;;-2.43;79.37
50672;BME280;46021;55.882;37.654;2023-03-04T06:03:14;97511.56;;;-2.31;78.50
50672;BME280;46021;55.882;37.654;2023-03-04T06:05:42;97511.53;;;-2.28;78.14
50672;BME280;46021;55.882;37.654;2023-03-04T06:08:11;97503.09;;;-2.31;77.97
50672;BME280;46021;55.882;37.654;2023-03-04T06:10:39;97507.25;;;-2.27;77.96
50672;BME280;46021;55.882;37.654;2023-03-04T06:13:07;97508.19;;;-2.31;77.57
50672;BME280;46021;55.882;37.654;2023-03-04T06:15:34;97505.66;;;-2.35;77.22
50672;BME280;46021;55.882;37.654;2023-03-04T06:18:11;97511.91;;;-2.54;78.11
50672;BME280;46021;55.882;37.654;2023-03-04T06:20:39;97505.09;;;-2.52;77.76
50672;BME280;46021;55.882;37.654;2023-03-04T06:23:06;97495.66;;;-2.47;77.25
50672;BME280;46021;55.882;37.654;2023-03-04T06:25:34;97495.53;;;-2.38;77.76
50672;BME280;46021;55.882;37.654;2023-03-04T06:28:01;97505.75;;;-2.38;76.73
50672;BME280;46021;55.882;37.654;2023-03-04T06:30:29;97492.97;;;-2.36;77.56
50672;BME280;46021;55.882;37.654;2023-03-04T06:32:56;97500.28;;;-2.16;77.20
50672;BME280;46021;55.882;37.654;2023-03-04T06:35:23;97497.59;;;-2.07;76.48
50672;BME280;46021;55.882;37.654;2023-03-04T06:37:57;97486.44;;;-2.03;76.29
50672;BME280;46021;55.882;37.654;2023-03-04T06:40:36;97488.06;;;-1.99;76.62
50672;BME280;46021;55.882;37.654;2023-03-04T06:43:03;97477.88;;;-1.99;75.95
50672;BME280;46021;55.882;37.654;2023-03-04T06:45:30;97481.16;;;-1.90;75.93
50672;BME280;46021;55.882;37.654;2023-03-04T06:47:57;97477.72;;;-1.89;75.84
50672;BME280;46021;55.882;37.654;2023-03-04T06:50:24;97477.75;;;-1.91;76.03
50672;BME280;46021;55.882;37.654;2023-03-04T06:52:51;97464.06;;;-1.87;76.03
50672;BME280;46021;55.882;37.654;2023-03-04T06:55:19;97469.84;;;-1.77;75.86
50672;BME280;46021;55.882;37.654;2023-03-04T06:57:48;97451.97;;;-1.77;75.47
50672;BME280;46021;55.882;37.654;2023-03-04T07:00:16;97463.69;;;-1.68;75.15
50672;BME280;46021;55.882;37.654;2023-03-04T07:02:44;97452.72;;;-1.72;75.19
50672;BME280;46021;55.882;37.654;2023-03-04T07:05:11;97453.63;;;-1.76;74.92
50672;BME280;46021;55.882;37.654;2023-03-04T07:07:38;97454.50;;;-1.75;75.01
50672;BME280;46021;55.882;37.654;2023-03-04T07:10:06;97455.44;;;-1.81;74.95
50672;BME280;46021;55.882;37.654;2023-03-04T07:12:34;97445.81;;;-1.68;75.69
50672;BME280;46021;55.882;37.654;2023-03-04T07:15:04;97437.94;;;-1.56;74.87
50672;BME280;46021;55.882;37.654;2023-03-04T07:17:31;97432.53;;;-1.42;74.82
50672;BME280;46021;55.882;37.654;2023-03-04T07:19:59;97432.97;;;-1.20;74.20
50672;BME280;46021;55.882;37.654;2023-03-04T07:22:26;97430.84;;;-1.01;73.93
50672;BME280;46021;55.882;37.654;2023-03-04T07:24:53;97419.25;;;-0.79;74.18
50672;BME280;46021;55.882;37.654;2023-03-04T07:27:20;97422.34;;;-0.64;73.18
50672;BME280;46021;55.882;37.654;2023-03-04T07:29:48;97414.50;;;-0.56;72.90
50672;BME280;46021;55.882;37.654;2023-03-04T07:32:16;97403.97;;;-0.46;74.21
50672;BME280;46021;55.882;37.654;2023-03-04T07:34:43;97407.22;;;-0.37;72.16
50672;BME280;46021;55.882;37.654;2023-03-04T07:37:10;97407.03;;;-0.30;71.25
50672;BME280;46021;55.882;37.654;2023-03-04T07:39:37;97394.88;;;-0.23;72.83
50672;BME280;46021;55.882;37.654;2023-03-04T07:42:05;97390.34;;;-0.12;72.06
50672;BME280;46021;55.882;37.654;2023-03-04T07:44:37;97394.19;;;0.05;71.14
50672;BME280;46021;55.882;37.654;2023-03-04T07:47:04;97380.59;;;0.03;70.67
50672;BME280;46021;55.882;37.654;2023-03-04T07:49:33;97384.34;;;-0.11;69.75
50672;BME280;46021;55.882;37.654;2023-03-04T07:52:02;97389.69;;;-0.20;69.93
50672;BME280;46021;55.882;37.654;2023-03-04T07:54:29;97394.25;;;-0.31;70.59
50672;BME280;46021;55.882;37.654;2023-03-04T07:56:57;97381.56;;;-0.36;70.87
50672;BME280;46021;55.882;37.654;2023-03-04T07:59:24;97383.28;;;-0.36;70.40
50672;BME280;46021;55.882;37.654;2023-03-04T08:01:51;97382.41;;;-0.35;71.49
50672;BME280;46021;55.882;37.654;2023-03-04T08:04:18;97384.81;;;-0.29;70.95
50672;BME280;46021;55.882;37.654;2023-03-04T08:06:47;97375.22;;;-0.21;72.08
50672;BME280;46021;55.882;37.654;2023-03-04T08:09:17;97378.44;;;-0.13;71.49
50672;BME280;46021;55.882;37.654;2023-03-04T08:11:44;97381.19;;;-0.21;70.48
50672;BME280;46021;55.882;37.654;2023-03-04T08:14:12;97375.09;;;-0.16;69.86
50672;BME280;46021;55.882;37.654;2023-03-04T08:16:39;97363.03;;;-0.11;70.86
50672;BME280;46021;55.882;37.654;2023-03-04T08:19:07;97364.59;;;-0.06;70.71
50672;BME280;46021;55.882;37.654;2023-03-04T08:21:34;97366.19;;;-0.02;70.69
50672;BME280;46021;55.882;37.654;2023-03-04T08:24:04;97368.03;;;-0.07;69.96
50672;BME280;46021;55.882;37.654;2023-03-04T08:26:34;97359.84;;;-0.21;69.70
50672;BME280;46021;55.882;37.654;2023-03-04T08:29:04;97347.38;;;-0.33;69.81
50672;BME280;46021;55.882;37.654;2023-03-04T08:31:31;97343.22;;;-0.37;69.53
50672;BME280;46021;55.882;37.654;2023-03-04T08:33:59;97346.66;;;-0.38;69.46
50672;BME280;46021;55.882;37.654;2023-03-04T08:36:26;97351.38;;;-0.23;70.74
50672;BME280;46021;55.882;37.654;2023-03-04T08:38:53;97331.44;;;-0.12;70.37
50672;BME280;46021;55.882;37.654;2023-03-04T08:41:22;97336.88;;;0.09;70.70
50672;BME280;46021;55.882;37.654;2023-03-04T08:43:50;97331.81;;;0.06;70.14
50672;BME280;46021;55.882;37.654;2023-03-04T08:46:17;97339.38;;;0.10;70.05
50672;BME280;46021;55.882;37.654;2023-03-04T08:48:45;97332.09;;;-0.04;68.87
50672;BME280;46021;55.882;37.654;2023-03-04T08:51:14;97324.00;;;-0.21;69.56
50672;BME280;46021;55.882;37.654;2023-03-04T08:53:42;97326.09;;;-0.35;69.44
50672;BME280;46021;55.882;37.654;2023-03-04T08:56:09;97335.59;;;-0.39;70.76
50672;BME280;46021;55.882;37.654;2023-03-04T08:58:38;97334.66;;;-0.36;71.17
50672;BME280;46021;55.882;37.654;2023-03-04T09:01:07;97327.06;;;-0.40;70.19
50672;BME280;46021;55.882;37.654;2023-03-04T09:03:36;97322.06;;;-0.44;70.35
50672;BME280;46021;55.882;37.654;2023-03-04T09:06:03;97315.19;;;-0.42;71.18
50672;BME280;46021;55.882;37.654;2023-03-04T09:08:31;97321.00;;;-0.35;70.72
50672;BME280;46021;55.882;37.654;2023-03-04T09:10:58;97308.06;;;-0.31;70.98
50672;BME280;46021;55.882;37.654;2023-03-04T09:13:28;97304.00;;;-0.07;71.22
50672;BME280;46021;55.882;37.654;2023-03-04T09:15:57;97302.53;;;0.16;70.81
50672;BME280;46021;55.882;37.654;2023-03-04T09:18:24;97298.63;;;0.32;71.23
50672;BME280;46021;55.882;37.654;2023-03-04T09:20:52;97294.13;;;0.41;70.87
50672;BME280;46021;55.882;37.654;2023-03-04T09:23:19;97287.25;;;0.41;69.52
50672;BME280;46021;55.882;37.654;2023-03-04T09:25:47;97281.03;;;0.50;70.56
50672;BME280;46021;55.882;37.654;2023-03-04T09:28:15;97276.81;;;0.75;71.05
50672;BME280;46021;55.882;37.654;2023-03-04T09:30:42;97262.72;;;1.15;72.25
50672;BME280;46021;55.882;37.654;2023-03-04T09:33:11;97259.22;;;1.68;71.60
50672;BME280;46021;55.882;37.654;2023-03-04T09:35:39;97241.97;;;1.95;69.30
50672;BME280;46021;55.882;37.654;2023-03-04T09:38:06;97245.66;;;2.12;68.40
50672;BME280;46021;55.882;37.654;2023-03-04T09:40:38;97238.06;;;2.09;67.13
50672;BME280;46021;55.882;37.654;2023-03-04T09:43:12;97247.03;;;2.21;67.97
50672;BME280;46021;55.882;37.654;2023-03-04T09:45:47;97238.69;;;2.38;67.54
50672;BME280;46021;55.882;37.654;2023-03-04T09:48:19;97230.81;;;2.42;65.97
50672;BME280;46021;55.882;37.654;2023-03-04T09:51:00;97229.00;;;2.22;65.64
50672;BME280;46021;55.882;37.654;2023-03-04T09:53:34;97226.38;;;2.00;66.80
50672;BME280;46021;55.882;37.654;2023-03-04T09:56:06;97211.00;;;1.77;65.72
50672;BME280;46021;55.882;37.654;2023-03-04T09:58:41;97208.84;;;1.41;65.36
50672;BME280;46021;55.882;37.654;2023-03-04T10:01:16;97210.97;;;1.03;66.15
50672;BME280;46021;55.882;37.654;2023-03-04T10:03:50;97201.97;;;0.64;65.79
50672;BME280;46021;55.882;37.654;2023-03-04T10:06:20;97200.84;;;0.46;66.36
50672;BME280;46021;55.882;37.654;2023-03-04T10:08:53;97192.78;;;0.30;66.54
50672;BME280;46021;55.882;37.654;2023-03-04T10:11:24;97193.75;;;0.26;67.16
50672;BME280;46021;55.882;37.654;2023-03-04T10:14:03;97191.31;;;0.23;67.53
50672;BME280;46021;55.882;37.654;2023-03-04T10:16:39;97184.69;;;0.16;67.33
50672;BME280;46021;55.882;37.654;2023-03-04T10:19:29;97182.91;;;0.18;68.13
50672;BME280;46021;55.882;37.654;2023-03-04T10:21:57;97167.38;;;0.23;67.39
50672;BME280;46021;55.882;37.654;2023-03-04T10:24:27;97181.28;;;0.44;67.76
50672;BME280;46021;55.882;37.654;2023-03-04T10:26:58;97171.31;;;0.61;68.86
50672;BME280;46021;55.882;37.654;2023-03-04T10:29:29;97163.81;;;0.82;67.86
50672;BME280;46021;55.882;37.654;2023-03-04T10:31:57;97148.13;;;0.91;66.35
50672;BME280;46021;55.882;37.654;2023-03-04T10:34:24;97156.16;;;1.05;67.08
50672;BME280;46021;55.882;37.654;2023-03-04T10:36:57;97147.63;;;1.05;67.21
50672;BME280;46021;55.882;37.654;2023-03-04T10:39:26;97148.41;;;1.07;66.10
50672;BME280;46021;55.882;37.654;2023-03-04T10:41:57;97142.66;;;1.00;66.27
50672;BME280;46021;55.882;37.654;2023-03-04T10:44:25;97138.16;;;0.82;64.71
50672;BME280;46021;55.882;37.654;2023-03-04T10:46:54;97140.88;;;0.77;65.80
50672;BME280;46021;55.882;37.654;2023-03-04T10:49:22;97118.84;;;0.71;65.60
50672;BME280;46021;55.882;37.654;2023-03-04T10:51:54;97121.41;;;0.71;66.35
50672;BME280;46021;55.882;37.654;2023-03-04T10:54:26;97111.06;;;0.74;65.87
50672;BME280;46021;55.882;37.654;2023-03-04T10:56:58;97107.41;;;0.82;66.37
50672;BME280;46021;55.882;37.654;2023-03-04T10:59:42;97100.56;;;0.81;65.12
50672;BME280;46021;55.882;37.654;2023-03-04T11:02:17;97093.88;;;0.76;64.75
50672;BME280;46021;55.882;37.654;2023-03-04T11:04:49;97099.31;;;0.67;65.89
50672;BME280;46021;55.882;37.654;2023-03-04T11:07:20;97088.50;;;0.59;65.62
50672;BME280;46021;55.882;37.654;2023-03-04T11:09:47;97094.81;;;0.49;66.34
50672;BME280;46021;55.882;37.654;2023-03-04T11:12:16;97108.81;;;0.38;66.38
50672;BME280;46021;55.882;37.654;2023-03-04T11:14:46;97097.19;;;0.28;65.66
50672;BME280;46021;55.882;37.654;2023-03-04T11:17:20;97083.28;;;0.09;66.83
50672;BME280;46021;55.882;37.654;2023-03-04T11:19:51;97077.47;;;0.04;65.65
50672;BME280;46021;55.882;37.654;2023-03-04T11:22:22;97081.28;;;-0.10;66.84
50672;BME280;46021;55.882;37.654;2023-03-04T11:24:55;97077.16;;;-0.14;67.78
50672;BME280;46021;55.882;37.654;2023-03-04T11:27:30;97068.00;;;-0.21;68.00
50672;BME280;46021;55.882;37.654;2023-03-04T11:30:15;97069.75;;;-0.23;66.99
50672;BME280;46021;55.882;37.654;2023-03-04T11:32:47;97056.97;;;-0.23;67.84
50672;BME280;46021;55.882;37.654;2023-03-04T11:35:20;97057.16;;;-0.29;66.85
50672;BME280;46021;55.882;37.654;2023-03-04T11:37:56;97063.25;;;-0.33;67.07
50672;BME280;46021;55.882;37.654;2023-03-04T11:40:29;97054.69;;;-0.32;68.70
50672;BME280;46021;55.882;37.654;2023-03-04T11:43:03;97054.63;;;-0.31;67.81
50672;BME280;46021;55.882;37.654;2023-03-04T11:48:33;97054.78;;;-0.35;68.62
50672;BME280;46021;55.882;37.654;2023-03-04T11:51:05;97038.66;;;-0.37;69.48
50672;BME280;46021;55.882;37.654;2023-03-04T11:53:43;97041.09;;;-0.34;69.24
50672;BME280;46021;55.882;37.654;2023-03-04T11:56:25;97034.31;;;-0.35;69.03
50672;BME280;46021;55.882;37.654;2023-03-04T11:59:09;97035.81;;;-0.28;68.81
50672;BME280;46021;55.882;37.654;2023-03-04T12:01:49;97029.59;;;-0.21;69.41
50672;BME280;46021;55.882;37.654;2023-03-04T12:04:42;97011.25;;;-0.34;69.84
50672;BME280;46021;55.882;37.654;2023-03-04T12:07:24;97012.44;;;-0.46;69.01
50672;BME280;46021;55.882;37.654;2023-03-04T12:10:05;97004.97;;;-0.52;69.83
50672;BME280;46021;55.882;37.654;2023-03-04T12:12:51;97014.31;;;-0.51;69.93
50672;BME280;46021;55.882;37.654;2023-03-04T12:15:27;97006.72;;;-0.54;70.53
50672;BME280;46021;55.882;37.654;2023-03-04T12:18:06;97003.00;;;-0.72;72.09
50672;BME280;46021;55.882;37.654;2023-03-04T12:20:55;97008.94;;;-0.70;71.39
50672;BME280;46021;55.882;37.654;2023-03-04T12:26:19;96994.88;;;-0.85;72.77
50672;BME280;46021;55.882;37.654;2023-03-04T12:28:56;96995.53;;;-0.80;71.99
50672;BME280;46021;55.882;37.654;2023-03-04T12:31:38;96992.91;;;-0.76;72.76
50672;BME280;46021;55.882;37.654;2023-03-04T12:34:30;96982.03;;;-0.83;72.50
50672;BME280;46021;55.882;37.654;2023-03-04T12:40:08;96972.19;;;-0.97;74.22
50672;BME280;46021;55.882;37.654;2023-03-04T12:42:52;96975.44;;;-0.90;74.46
50672;BME280;46021;55.882;37.654;2023-03-04T12:45:27;96971.88;;;-0.86;73.97
50672;BME280;46021;55.882;37.654;2023-03-04T12:48:05;96971.81;;;-0.83;74.85
50672;BME280;46021;55.882;37.654;2023-03-04T12:50:40;96956.31;;;-0.79;74.08
50672;BME280;46021;55.882;37.654;2023-03-04T12:53:16;96967.13;;;-0.70;75.25
50672;BME280;46021;55.882;37.654;2023-03-04T12:55:48;96960.16;;;-0.65;74.46
50672;BME280;46021;55.882;37.654;2023-03-04T12:58:20;96951.75;;;-0.69;75.54
50672;BME280;46021;55.882;37.654;2023-03-04T13:00:55;96955.13;;;-0.68;75.63
50672;BME280;46021;55.882;37.654;2023-03-04T13:03:30;96950.72;;;-0.63;75.34
50672;BME280;46021;55.882;37.654;2023-03-04T13:06:06;96944.81;;;-0.65;77.48
50672;BME280;46021;55.882;37.654;2023-03-04T13:08:47;96933.72;;;-0.64;77.36
50672;BME280;46021;55.882;37.654;2023-03-04T13:11:51;96933.09;;;-0.72;76.68
50672;BME280;46021;55.882;37.654;2023-03-04T13:14:29;96924.00;;;-0.81;77.15